sensor_id;sensor_type;location;lat;lon;timestamp;pressure;altitude;pressure_sealevel;temperature;humidity
38900;BME280;24660;43.238;26.576;2023-01-25T00:01:40;100973.69;;;0.87;100.00
38900;BME280;24660;43.238;26.576;2023-01-25T00:04:06;100976.97;;;1.01;100.00
38900;BME280;24660;43.238;26.576;2023-01-25T00:06:31;100969.22;;;0.92;100.00
38900;BME280;24660;43.238;26.576;2023-01-25T00:08:56;100965.63;;;0.96;100.00
38900;BME280;24660;43.238;26.576;2023-01-25T00:11:21;100972.31;;;1.15;100.00
38900;BME280;24660;43.238;26.576;2023-01-25T00:13:47;100969.81;;;1.08;100.00
38900;BME280;24660;43.238;26.576;2023-01-25T00:16:12;100968.88;;;1.10;100.00
38900;BME280;24660;43.238;26.576;2023-01-25T00:18:37;100972.44;;;1.08;100.00
38900;BME280;24660;43.238;26.576;2023-01-25T00:23:43;100957.22;;;0.76;100.00
38900;BME280;24660;43.238;26.576;2023-01-25T00:26:08;100969.06;;;1.01;100.00
38900;BME280;24660;43.238;26.576;2023-01-25T00:28:34;100963.09;;;0.92;100.00
38900;BME280;24660;43.238;26.576;2023-01-25T00:31:00;100962.97;;;0.99;100.00
38900;BME280;24660;43.238;26.576;2023-01-25T00:38:47;100955.97;;;0.97;100.00
38900;BME280;24660;43.238;26.576;2023-01-25T00:41:12;100954.59;;;0.74;100.00
38900;BME280;24660;43.238;26.576;2023-01-25T00:43:37;100960.56;;;0.84;100.00
38900;BME280;24660;43.238;26.576;2023-01-25T00:46:03;100953.78;;;0.72;100.00
38900;BME280;24660;43.238;26.576;2023-01-25T00:48:28;100952.59;;;0.90;100.00
38900;BME280;24660;43.238;26.576;2023-01-25T00:50:53;100953.09;;;1.10;100.00
38900;BME280;24660;43.238;26.576;2023-01-25T00:53:19;100954.34;;;0.89;100.00
38900;BME280;24660;43.238;26.576;2023-01-25T00:55:51;100956.38;;;0.74;100.00
38900;BME280;24660;43.238;26.576;2023-01-25T00:58:17;100950.72;;;0.95;100.00
38900;BME280;24660;43.238;26.576;2023-01-25T01:00:42;100951.13;;;0.72;100.00
38900;BME280;24660;43.238;26.576;2023-01-25T01:03:07;100942.56;;;1.10;100.00
38900;BME280;24660;43.238;26.576;2023-01-25T01:05:33;100941.88;;;1.01;100.00
38900;BME280;24660;43.238;26.576;2023-01-25T01:08:00;100938.22;;;1.08;100.00
38900;BME280;24660;43.238;26.576;2023-01-25T01:10:25;100937.38;;;1.06;100.00
38900;BME280;24660;43.238;26.576;2023-01-25T01:12:50;100934.44;;;1.23;100.00
38900;BME280;24660;43.238;26.576;2023-01-25T01:15:16;100931.47;;;1.39;100.00
38900;BME280;24660;43.238;26.576;2023-01-25T01:17:41;100922.53;;;1.02;100.00
38900;BME280;24660;43.238;26.576;2023-01-25T01:20:07;100933.53;;;0.76;100.00
38900;BME280;24660;43.238;26.576;2023-01-25T01:22:32;100923.00;;;0.76;100.00
38900;BME280;24660;43.238;26.576;2023-01-25T01:24:57;100926.31;;;0.87;100.00
38900;BME280;24660;43.238;26.576;2023-01-25T01:27:23;100924.50;;;1.37;100.00
38900;BME280;24660;43.238;26.576;2023-01-25T01:29:48;100924.56;;;1.34;100.00
38900;BME280;24660;43.238;26.576;2023-01-25T01:32:13;100929.72;;;0.92;100.00
38900;BME280;24660;43.238;26.576;2023-01-25T01:34:38;100923.13;;;1.17;100.00
38900;BME280;24660;43.238;26.576;2023-01-25T01:37:04;100924.31;;;1.46;100.00
38900;BME280;24660;43.238;26.576;2023-01-25T01:39:29;100921.47;;;1.57;100.00
38900;BME280;24660;43.238;26.576;2023-01-25T01:41:54;100914.59;;;1.49;100.00
38900;BME280;24660;43.238;26.576;2023-01-25T01:44:21;100923.06;;;1.21;100.00
38900;BME280;24660;43.238;26.576;2023-01-25T01:47:06;100917.59;;;0.85;100.00
38900;BME280;24660;43.238;26.576;2023-01-25T01:49:36;100912.06;;;0.99;100.00
38900;BME280;24660;43.238;26.576;2023-01-25T01:52:04;100911.88;;;1.08;100.00
38900;BME280;24660;43.238;26.576;2023-01-25T01:54:35;100916.97;;;1.18;100.00
38900;BME280;24660;43.238;26.576;2023-01-25T01:59:30;100910.16;;;0.57;100.00
38900;BME280;24660;43.238;26.576;2023-01-25T02:01:57;100917.44;;;0.93;100.00
38900;BME280;24660;43.238;26.576;2023-01-25T02:04:22;100917.72;;;0.77;100.00
38900;BME280;24660;43.238;26.576;2023-01-25T02:06:53;100910.25;;;1.02;100.00
38900;BME280;24660;43.238;26.576;2023-01-25T02:09:21;100897.38;;;0.87;100.00
38900;BME280;24660;43.238;26.576;2023-01-25T02:11:47;100907.44;;;0.62;100.00
38900;BME280;24660;43.238;26.576;2023-01-25T02:14:14;100905.75;;;0.58;100.00
38900;BME280;24660;43.238;26.576;2023-01-25T02:16:41;100902.72;;;0.81;100.00
38900;BME280;24660;43.238;26.576;2023-01-25T02:19:06;100900.25;;;0.73;100.00
38900;BME280;24660;43.238;26.576;2023-01-25T02:21:35;100902.16;;;0.64;100.00
38900;BME280;24660;43.238;26.576;2023-01-25T02:24:04;100904.38;;;0.88;100.00
38900;BME280;24660;43.238;26.576;2023-01-25T02:26:31;100905.22;;;0.88;100.00
38900;BME280;24660;43.238;26.576;2023-01-25T02:28:59;100905.22;;;0.88;100.00
38900;BME280;24660;43.238;26.576;2023-01-25T02:31:26;100897.91;;;0.55;100.00
38900;BME280;24660;43.238;26.576;2023-01-25T02:33:51;100906.94;;;0.91;100.00
38900;BME280;24660;43.238;26.576;2023-01-25T02:38:52;100902.09;;;0.67;100.00
38900;BME280;24660;43.238;26.576;2023-01-25T02:44:00;100911.78;;;0.65;100.00
38900;BME280;24660;43.238;26.576;2023-01-25T02:46:29;100911.25;;;0.95;100.00
38900;BME280;24660;43.238;26.576;2023-01-25T02:48:55;100903.38;;;0.94;100.00
38900;BME280;24660;43.238;26.576;2023-01-25T02:51:21;100911.63;;;0.74;100.00
38900;BME280;24660;43.238;26.576;2023-01-25T02:53:47;100906.31;;;0.77;100.00
38900;BME280;24660;43.238;26.576;2023-01-25T02:56:13;100913.63;;;0.59;100.00
38900;BME280;24660;43.238;26.576;2023-01-25T02:58:38;100903.28;;;0.49;100.00
38900;BME280;24660;43.238;26.576;2023-01-25T03:01:03;100906.84;;;0.46;100.00
38900;BME280;24660;43.238;26.576;2023-01-25T03:03:29;100907.25;;;0.19;100.00
38900;BME280;24660;43.238;26.576;2023-01-25T03:05:54;100904.41;;;0.33;100.00
38900;BME280;24660;43.238;26.576;2023-01-25T03:08:19;100908.66;;;0.41;100.00
38900;BME280;24660;43.238;26.576;2023-01-25T03:10:44;100905.22;;;0.36;100.00
38900;BME280;24660;43.238;26.576;2023-01-25T03:13:10;100904.56;;;0.23;100.00
38900;BME280;24660;43.238;26.576;2023-01-25T03:15:35;100902.50;;;0.44;100.00
38900;BME280;24660;43.238;26.576;2023-01-25T03:18:00;100908.34;;;0.61;100.00
38900;BME280;24660;43.238;26.576;2023-01-25T03:20:26;100904.91;;;0.56;100.00
38900;BME280;24660;43.238;26.576;2023-01-25T03:22:51;100913.72;;;0.53;100.00
38900;BME280;24660;43.238;26.576;2023-01-25T03:25:17;100910.06;;;0.62;100.00
38900;BME280;24660;43.238;26.576;2023-01-25T03:27:42;100910.44;;;0.39;100.00
38900;BME280;24660;43.238;26.576;2023-01-25T03:30:08;100907.53;;;0.57;100.00
38900;BME280;24660;43.238;26.576;2023-01-25T03:32:33;100911.91;;;0.55;100.00
38900;BME280;24660;43.238;26.576;2023-01-25T03:34:59;100906.91;;;0.40;100.00
38900;BME280;24660;43.238;26.576;2023-01-25T03:37:24;100910.34;;;0.45;100.00
38900;BME280;24660;43.238;26.576;2023-01-25T03:39:55;100903.59;;;0.29;100.00
38900;BME280;24660;43.238;26.576;2023-01-25T03:42:20;100907.03;;;0.34;100.00
38900;BME280;24660;43.238;26.576;2023-01-25T03:44:46;100905.34;;;0.30;100.00
38900;BME280;24660;43.238;26.576;2023-01-25T03:47:11;100910.97;;;0.61;100.00
38900;BME280;24660;43.238;26.576;2023-01-25T03:49:36;100918.47;;;0.32;100.00
38900;BME280;24660;43.238;26.576;2023-01-25T03:52:02;100914.59;;;-0.05;100.00
38900;BME280;24660;43.238;26.576;2023-01-25T03:54:27;100913.44;;;0.16;100.00
38900;BME280;24660;43.238;26.576;2023-01-25T03:56:52;100914.31;;;0.14;100.00
38900;BME280;24660;43.238;26.576;2023-01-25T03:59:18;100920.47;;;0.13;100.00
38900;BME280;24660;43.238;26.576;2023-01-25T04:01:43;100919.16;;;0.41;100.00
38900;BME280;24660;43.238;26.576;2023-01-25T04:04:08;100920.59;;;0.62;100.00
38900;BME280;24660;43.238;26.576;2023-01-25T04:06:34;100917.69;;;0.23;100.00
38900;BME280;24660;43.238;26.576;2023-01-25T04:08:59;100921.06;;;0.33;100.00
38900;BME280;24660;43.238;26.576;2023-01-25T04:11:24;100921.75;;;0.46;100.00
38900;BME280;24660;43.238;26.576;2023-01-25T04:13:49;100915.88;;;0.30;100.00
38900;BME280;24660;43.238;26.576;2023-01-25T04:16:15;100915.09;;;0.22;100.00
38900;BME280;24660;43.238;26.576;2023-01-25T04:18:40;100909.06;;;0.17;100.00
38900;BME280;24660;43.238;26.576;2023-01-25T04:21:05;100922.13;;;0.21;100.00
38900;BME280;24660;43.238;26.576;2023-01-25T04:23:31;100921.59;;;0.56;100.00
38900;BME280;24660;43.238;26.576;2023-01-25T04:25:58;100917.59;;;0.31;100.00
38900;BME280;24660;43.238;26.576;2023-01-25T04:28:24;100913.69;;;0.56;100.00
38900;BME280;24660;43.238;26.576;2023-01-25T04:30:50;100919.16;;;0.41;100.00
38900;BME280;24660;43.238;26.576;2023-01-25T04:33:16;100917.34;;;0.46;100.00
38900;BME280;24660;43.238;26.576;2023-01-25T04:35:42;100917.06;;;0.63;100.00
38900;BME280;24660;43.238;26.576;2023-01-25T04:38:08;100917.25;;;0.52;100.00
38900;BME280;24660;43.238;26.576;2023-01-25T04:40:33;100915.44;;;0.57;100.00
38900;BME280;24660;43.238;26.576;2023-01-25T04:42:58;100923.09;;;0.70;100.00
38900;BME280;24660;43.238;26.576;2023-01-25T04:45:24;100926.78;;;0.59;100.00
38900;BME280;24660;43.238;26.576;2023-01-25T04:47:55;100922.63;;;0.46;100.00
38900;BME280;24660;43.238;26.576;2023-01-25T04:50:21;100922.25;;;0.68;100.00
38900;BME280;24660;43.238;26.576;2023-01-25T04:52:46;100923.97;;;0.69;100.00
38900;BME280;24660;43.238;26.576;2023-01-25T04:55:11;100927.28;;;0.27;100.00
38900;BME280;24660;43.238;26.576;2023-01-25T04:57:37;100920.00;;;0.45;100.00
38900;BME280;24660;43.238;26.576;2023-01-25T05:00:02;100919.16;;;0.44;100.00
38900;BME280;24660;43.238;26.576;2023-01-25T05:02:28;100922.41;;;0.58;100.00
38900;BME280;24660;43.238;26.576;2023-01-25T05:04:53;100924.66;;;0.29;100.00
38900;BME280;24660;43.238;26.576;2023-01-25T05:07:18;100924.66;;;0.26;100.00
38900;BME280;24660;43.238;26.576;2023-01-25T05:09:44;100920.22;;;0.31;100.00
38900;BME280;24660;43.238;26.576;2023-01-25T05:12:09;100915.25;;;0.67;100.00
38900;BME280;24660;43.238;26.576;2023-01-25T05:14:36;100914.34;;;0.68;100.00
38900;BME280;24660;43.238;26.576;2023-01-25T05:17:01;100918.47;;;0.32;100.00
38900;BME280;24660;43.238;26.576;2023-01-25T05:19:26;100912.09;;;0.46;100.00
38900;BME280;24660;43.238;26.576;2023-01-25T05:21:51;100914.19;;;0.23;100.00
38900;BME280;24660;43.238;26.576;2023-01-25T05:24:25;100921.31;;;0.18;100.00
38900;BME280;24660;43.238;26.576;2023-01-25T05:26:50;100921.13;;;0.27;100.00
38900;BME280;24660;43.238;26.576;2023-01-25T05:29:31;100916.41;;;0.50;100.00
38900;BME280;24660;43.238;26.576;2023-01-25T05:32:00;100916.09;;;0.15;100.00
38900;BME280;24660;43.238;26.576;2023-01-25T05:34:25;100923.75;;;0.30;100.00
38900;BME280;24660;43.238;26.576;2023-01-25T05:36:50;100925.06;;;-0.02;100.00
38900;BME280;24660;43.238;26.576;2023-01-25T05:39:16;100925.41;;;-0.26;100.00
38900;BME280;24660;43.238;26.576;2023-01-25T05:41:41;100923.34;;;-0.03;100.00
38900;BME280;24660;43.238;26.576;2023-01-25T05:44:06;100924.84;;;0.14;100.00
38900;BME280;24660;43.238;26.576;2023-01-25T05:46:32;100926.41;;;0.27;100.00
38900;BME280;24660;43.238;26.576;2023-01-25T05:48:57;100935.81;;;0.42;100.00
38900;BME280;24660;43.238;26.576;2023-01-25T05:51:22;100938.72;;;0.25;100.00
38900;BME280;24660;43.238;26.576;2023-01-25T05:53:48;100938.97;;;0.07;100.00
38900;BME280;24660;43.238;26.576;2023-01-25T05:56:13;100931.00;;;0.14;100.00
38900;BME280;24660;43.238;26.576;2023-01-25T05:58:38;100934.09;;;-0.21;100.00
38900;BME280;24660;43.238;26.576;2023-01-25T06:01:07;100929.34;;;0.07;100.00
38900;BME280;24660;43.238;26.576;2023-01-25T06:03:32;100929.31;;;0.09;100.00
38900;BME280;24660;43.238;26.576;2023-01-25T06:05:58;100926.28;;;0.36;100.00
38900;BME280;24660;43.238;26.576;2023-01-25T06:08:26;100923.22;;;0.07;100.00
38900;BME280;24660;43.238;26.576;2023-01-25T06:10:52;100929.91;;;0.27;100.00
38900;BME280;24660;43.238;26.576;2023-01-25T06:13:17;100923.50;;;0.45;100.00
38900;BME280;24660;43.238;26.576;2023-01-25T06:15:50;100919.91;;;0.51;100.00
38900;BME280;24660;43.238;26.576;2023-01-25T06:18:15;100920.59;;;0.62;100.00
38900;BME280;24660;43.238;26.576;2023-01-25T06:20:40;100922.59;;;0.48;100.00
38900;BME280;24660;43.238;26.576;2023-01-25T06:23:06;100927.09;;;0.40;100.00
38900;BME280;24660;43.238;26.576;2023-01-25T06:25:31;100930.34;;;0.55;100.00
38900;BME280;24660;43.238;26.576;2023-01-25T06:27:56;100936.56;;;0.50;100.00
38900;BME280;24660;43.238;26.576;2023-01-25T06:30:21;100931.28;;;0.51;100.00
38900;BME280;24660;43.238;26.576;2023-01-25T06:32:47;100936.44;;;0.59;100.00
38900;BME280;24660;43.238;26.576;2023-01-25T06:35:14;100940.97;;;-0.11;100.00
38900;BME280;24660;43.238;26.576;2023-01-25T06:37:39;100943.28;;;0.11;100.00
38900;BME280;24660;43.238;26.576;2023-01-25T06:40:05;100936.78;;;0.36;100.00
38900;BME280;24660;43.238;26.576;2023-01-25T06:42:30;100927.00;;;0.46;100.00
38900;BME280;24660;43.238;26.576;2023-01-25T06:44:55;100926.75;;;0.61;100.00
38900;BME280;24660;43.238;26.576;2023-01-25T06:47:21;100923.31;;;0.57;100.00
38900;BME280;24660;43.238;26.576;2023-01-25T06:49:46;100918.00;;;0.04;100.00
38900;BME280;24660;43.238;26.576;2023-01-25T06:52:11;100922.19;;;0.17;100.00
38900;BME280;24660;43.238;26.576;2023-01-25T06:54:37;100922.69;;;0.40;100.00
38900;BME280;24660;43.238;26.576;2023-01-25T06:57:02;100925.75;;;0.13;100.00
38900;BME280;24660;43.238;26.576;2023-01-25T06:59:27;100936.97;;;0.24;100.00
38900;BME280;24660;43.238;26.576;2023-01-25T07:01:53;100933.22;;;0.40;100.00
38900;BME280;24660;43.238;26.576;2023-01-25T07:04:18;100929.88;;;0.31;100.00
38900;BME280;24660;43.238;26.576;2023-01-25T07:06:43;100934.16;;;0.36;100.00
38900;BME280;24660;43.238;26.576;2023-01-25T07:09:10;100931.38;;;0.47;100.00
38900;BME280;24660;43.238;26.576;2023-01-25T07:11:36;100927.88;;;0.46;100.00
38900;BME280;24660;43.238;26.576;2023-01-25T07:14:02;100932.78;;;0.68;100.00
38900;BME280;24660;43.238;26.576;2023-01-25T07:16:27;100929.19;;;0.73;100.00
38900;BME280;24660;43.238;26.576;2023-01-25T07:18:53;100928.81;;;0.93;100.00
38900;BME280;24660;43.238;26.576;2023-01-25T07:21:19;100922.28;;;0.66;100.00
38900;BME280;24660;43.238;26.576;2023-01-25T07:23:48;100931.00;;;0.68;100.00
38900;BME280;24660;43.238;26.576;2023-01-25T07:28:40;100921.50;;;0.61;100.00
38900;BME280;24660;43.238;26.576;2023-01-25T07:31:06;100920.72;;;0.54;100.00
38900;BME280;24660;43.238;26.576;2023-01-25T07:33:32;100927.78;;;0.51;100.00
38900;BME280;24660;43.238;26.576;2023-01-25T07:36:00;100928.69;;;0.50;100.00
38900;BME280;24660;43.238;26.576;2023-01-25T07:38:25;100938.81;;;0.19;100.00
38900;BME280;24660;43.238;26.576;2023-01-25T07:40:51;100943.03;;;0.27;100.00
38900;BME280;24660;43.238;26.576;2023-01-25T07:43:17;100940.25;;;0.38;100.00
38900;BME280;24660;43.238;26.576;2023-01-25T07:45:42;100947.97;;;0.50;100.00
38900;BME280;24660;43.238;26.576;2023-01-25T07:48:12;100945.16;;;0.63;100.00
38900;BME280;24660;43.238;26.576;2023-01-25T07:50:41;100936.03;;;0.29;100.00
38900;BME280;24660;43.238;26.576;2023-01-25T07:53:06;100950.66;;;0.47;100.00
38900;BME280;24660;43.238;26.576;2023-01-25T07:55:32;100948.03;;;0.47;100.00
38900;BME280;24660;43.238;26.576;2023-01-25T07:57:58;100947.13;;;0.48;100.00
38900;BME280;24660;43.238;26.576;2023-01-25T08:00:24;100944.03;;;0.22;100.00
38900;BME280;24660;43.238;26.576;2023-01-25T08:02:50;100940.38;;;0.32;100.00
38900;BME280;24660;43.238;26.576;2023-01-25T08:05:16;100941.19;;;0.36;100.00
38900;BME280;24660;43.238;26.576;2023-01-25T08:07:41;100941.16;;;0.37;100.00
38900;BME280;24660;43.238;26.576;2023-01-25T08:10:07;100934.47;;;0.72;100.00
38900;BME280;24660;43.238;26.576;2023-01-25T08:12:32;100942.47;;;0.66;100.00
38900;BME280;24660;43.238;26.576;2023-01-25T08:14:58;100937.63;;;0.92;100.00
38900;BME280;24660;43.238;26.576;2023-01-25T08:17:23;100934.53;;;1.18;100.00
38900;BME280;24660;43.238;26.576;2023-01-25T08:19:55;100933.75;;;1.11;100.00
38900;BME280;24660;43.238;26.576;2023-01-25T08:22:20;100935.41;;;1.18;100.00
38900;BME280;24660;43.238;26.576;2023-01-25T08:24:46;100941.91;;;0.98;100.00
38900;BME280;24660;43.238;26.576;2023-01-25T08:27:12;100924.47;;;0.92;100.00
38900;BME280;24660;43.238;26.576;2023-01-25T08:29:37;100927.84;;;1.00;100.00
38900;BME280;24660;43.238;26.576;2023-01-25T08:32:03;100917.00;;;0.66;100.00
38900;BME280;24660;43.238;26.576;2023-01-25T08:34:30;100914.75;;;0.96;100.00
38900;BME280;24660;43.238;26.576;2023-01-25T08:36:56;100911.91;;;1.06;100.00
38900;BME280;24660;43.238;26.576;2023-01-25T08:39:21;100912.84;;;1.04;100.00
38900;BME280;24660;43.238;26.576;2023-01-25T08:41:47;100914.00;;;0.89;100.00
38900;BME280;24660;43.238;26.576;2023-01-25T08:44:12;100913.97;;;0.91;100.00
38900;BME280;24660;43.238;26.576;2023-01-25T08:46:37;100918.56;;;1.26;100.00
38900;BME280;24660;43.238;26.576;2023-01-25T08:49:03;100921.63;;;1.04;100.00
38900;BME280;24660;43.238;26.576;2023-01-25T08:51:29;100917.59;;;0.83;100.00
38900;BME280;24660;43.238;26.576;2023-01-25T08:53:55;100921.34;;;1.18;100.00
38900;BME280;24660;43.238;26.576;2023-01-25T08:56:20;100924.25;;;1.49;100.00
38900;BME280;24660;43.238;26.576;2023-01-25T08:58:47;100921.44;;;1.58;100.00
38900;BME280;24660;43.238;26.576;2023-01-25T09:01:13;100926.41;;;1.30;100.00
38900;BME280;24660;43.238;26.576;2023-01-25T09:03:40;100923.06;;;1.21;100.00
38900;BME280;24660;43.238;26.576;2023-01-25T09:06:06;100913.47;;;1.18;100.00
38900;BME280;24660;43.238;26.576;2023-01-25T09:08:32;100906.06;;;0.91;100.00
38900;BME280;24660;43.238;26.576;2023-01-25T09:11:01;100907.09;;;1.30;100.00
38900;BME280;24660;43.238;26.576;2023-01-25T09:13:26;100906.88;;;1.39;100.00
38900;BME280;24660;43.238;26.576;2023-01-25T09:15:57;100905.31;;;1.30;100.00
38900;BME280;24660;43.238;26.576;2023-01-25T09:18:22;100898.75;;;1.06;100.00
38900;BME280;24660;43.238;26.576;2023-01-25T09:20:47;100907.78;;;0.93;100.00
38900;BME280;24660;43.238;26.576;2023-01-25T09:23:13;100904.84;;;0.61;100.00
38900;BME280;24660;43.238;26.576;2023-01-25T09:25:38;100895.31;;;1.03;100.00
38900;BME280;24660;43.238;26.576;2023-01-25T09:28:03;100896.59;;;0.80;100.00
38900;BME280;24660;43.238;26.576;2023-01-25T09:30:35;100891.50;;;0.71;100.00
38900;BME280;24660;43.238;26.576;2023-01-25T09:33:00;100897.47;;;1.29;100.00
38900;BME280;24660;43.238;26.576;2023-01-25T09:35:28;100886.00;;;1.31;100.00
38900;BME280;24660;43.238;26.576;2023-01-25T09:37:55;100883.53;;;1.22;100.00
38900;BME280;24660;43.238;26.576;2023-01-25T09:40:21;100879.19;;;1.19;100.00
38900;BME280;24660;43.238;26.576;2023-01-25T09:45:15;100872.19;;;1.18;100.00
38900;BME280;24660;43.238;26.576;2023-01-25T09:50:18;100872.56;;;1.43;100.00
38900;BME280;24660;43.238;26.576;2023-01-25T09:55:27;100857.38;;;1.11;100.00
38900;BME280;24660;43.238;26.576;2023-01-25T09:57:53;100858.25;;;1.13;100.00
38900;BME280;24660;43.238;26.576;2023-01-25T10:00:23;100857.97;;;1.27;100.00
38900;BME280;24660;43.238;26.576;2023-01-25T10:05:33;100856.00;;;0.94;100.00
38900;BME280;24660;43.238;26.576;2023-01-25T10:08:05;100856.53;;;1.11;100.00
38900;BME280;24660;43.238;26.576;2023-01-25T10:12:57;100857.13;;;1.25;100.00
38900;BME280;24660;43.238;26.576;2023-01-25T10:15:25;100850.13;;;1.24;100.00
38900;BME280;24660;43.238;26.576;2023-01-25T10:26:00;100831.88;;;1.15;100.00
38900;BME280;24660;43.238;26.576;2023-01-25T10:30:58;100810.38;;;0.93;100.00
38900;BME280;24660;43.238;26.576;2023-01-25T10:33:24;100814.50;;;1.06;100.00
38900;BME280;24660;43.238;26.576;2023-01-25T10:35:51;100808.50;;;1.00;100.00
38900;BME280;24660;43.238;26.576;2023-01-25T10:38:23;100819.03;;;0.98;100.00
38900;BME280;24660;43.238;26.576;2023-01-25T10:40:52;100805.69;;;1.07;100.00
38900;BME280;24660;43.238;26.576;2023-01-25T10:43:20;100798.53;;;1.15;100.00
38900;BME280;24660;43.238;26.576;2023-01-25T10:45:45;100797.81;;;1.06;100.00
38900;BME280;24660;43.238;26.576;2023-01-25T10:48:18;100799.50;;;1.50;100.00
38900;BME280;24660;43.238;26.576;2023-01-25T10:50:47;100793.25;;;1.54;100.00
38900;BME280;24660;43.238;26.576;2023-01-25T10:55:54;100779.25;;;1.13;100.00
38900;BME280;24660;43.238;26.576;2023-01-25T10:58:30;100783.25;;;0.89;100.00
38900;BME280;24660;43.238;26.576;2023-01-25T11:00:58;100770.41;;;1.16;100.00
38900;BME280;24660;43.238;26.576;2023-01-25T11:03:33;100763.56;;;1.07;100.00
38900;BME280;24660;43.238;26.576;2023-01-25T11:05:59;100758.47;;;0.98;100.00
38900;BME280;24660;43.238;26.576;2023-01-25T11:10:50;100755.69;;;1.06;100.00
38900;BME280;24660;43.238;26.576;2023-01-25T11:15:43;100737.94;;;1.15;100.00
38900;BME280;24660;43.238;26.576;2023-01-25T11:18:14;100746.16;;;1.02;100.00
38900;BME280;24660;43.238;26.576;2023-01-25T11:20:40;100747.41;;;1.24;100.00
38900;BME280;24660;43.238;26.576;2023-01-25T11:23:18;100730.47;;;1.36;100.00
38900;BME280;24660;43.238;26.576;2023-01-25T11:25:45;100733.25;;;1.30;100.00
38900;BME280;24660;43.238;26.576;2023-01-25T11:30:36;100731.31;;;1.36;100.00
38900;BME280;24660;43.238;26.576;2023-01-25T11:33:01;100726.69;;;1.07;100.00
38900;BME280;24660;43.238;26.576;2023-01-25T11:35:30;100723.88;;;1.16;100.00
38900;BME280;24660;43.238;26.576;2023-01-25T11:40:46;100725.47;;;1.62;100.00
38900;BME280;24660;43.238;26.576;2023-01-25T11:43:17;100719.09;;;1.34;100.00
38900;BME280;24660;43.238;26.576;2023-01-25T11:48:31;100714.22;;;1.54;100.00
38900;BME280;24660;43.238;26.576;2023-01-25T12:02:03;100709.22;;;1.43;100.00
38900;BME280;24660;43.238;26.576;2023-01-25T12:07:26;100702.56;;;1.64;100.00
38900;BME280;24660;43.238;26.576;2023-01-25T12:10:01;100700.28;;;1.49;100.00
38900;BME280;24660;43.238;26.576;2023-01-25T12:23:00;100688.41;;;1.68;100.00
38900;BME280;24660;43.238;26.576;2023-01-25T12:28:04;100692.38;;;1.49;100.00
38900;BME280;24660;43.238;26.576;2023-01-25T12:30:41;100691.59;;;1.45;100.00
38900;BME280;24660;43.238;26.576;2023-01-25T12:35:51;100687.88;;;1.54;100.00
38900;BME280;24660;43.238;26.576;2023-01-25T12:38:21;100693.84;;;1.62;100.00
38900;BME280;24660;43.238;26.576;2023-01-25T12:40:51;100690.44;;;1.57;100.00
38900;BME280;24660;43.238;26.576;2023-01-25T12:43:21;100685.28;;;1.53;100.00
38900;BME280;24660;43.238;26.576;2023-01-25T12:45:49;100685.84;;;1.30;100.00
38900;BME280;24660;43.238;26.576;2023-01-25T12:48:17;100687.16;;;1.47;100.00
38900;BME280;24660;43.238;26.576;2023-01-25T12:50:53;100694.69;;;1.26;100.00
38900;BME280;24660;43.238;26.576;2023-01-25T12:53:32;100687.63;;;1.28;100.00
38900;BME280;24660;43.238;26.576;2023-01-25T12:56:00;100679.78;;;1.25;100.00
38900;BME280;24660;43.238;26.576;2023-01-25T12:58:31;100684.31;;;1.19;100.00
38900;BME280;24660;43.238;26.576;2023-01-25T13:08:56;100684.09;;;1.29;100.00
38900;BME280;24660;43.238;26.576;2023-01-25T13:11:34;100683.38;;;1.59;100.00
38900;BME280;24660;43.238;26.576;2023-01-25T13:16:44;100672.50;;;0.97;100.00
38900;BME280;24660;43.238;26.576;2023-01-25T13:19:20;100672.13;;;1.51;100.00
38900;BME280;24660;43.238;26.576;2023-01-25T13:21:47;100669.59;;;1.48;100.00
38900;BME280;24660;43.238;26.576;2023-01-25T13:24:22;100667.44;;;1.64;100.00
38900;BME280;24660;43.238;26.576;2023-01-25T13:27:00;100659.22;;;1.76;100.00
38900;BME280;24660;43.238;26.576;2023-01-25T13:32:11;100658.63;;;1.29;100.00
38900;BME280;24660;43.238;26.576;2023-01-25T13:34:56;100662.94;;;1.67;100.00
38900;BME280;24660;43.238;26.576;2023-01-25T13:37:26;100651.78;;;1.58;100.00
38900;BME280;24660;43.238;26.576;2023-01-25T13:42:34;100653.59;;;1.56;100.00
38900;BME280;24660;43.238;26.576;2023-01-25T13:45:02;100658.38;;;1.75;100.00
38900;BME280;24660;43.238;26.576;2023-01-25T13:47:31;100658.22;;;1.80;100.00
38900;BME280;24660;43.238;26.576;2023-01-25T13:52:26;100656.84;;;1.65;100.00
38900;BME280;24660;43.238;26.576;2023-01-25T13:54:54;100659.06;;;1.82;100.00
38900;BME280;24660;43.238;26.576;2023-01-25T13:57:22;100654.13;;;1.68;100.00
38900;BME280;24660;43.238;26.576;2023-01-25T13:59:47;100661.31;;;1.28;100.00
38900;BME280;24660;43.238;26.576;2023-01-25T14:02:22;100655.59;;;1.46;100.00
38900;BME280;24660;43.238;26.576;2023-01-25T14:04:48;100650.16;;;1.52;100.00
38900;BME280;24660;43.238;26.576;2023-01-25T14:07:15;100651.66;;;1.62;100.00
38900;BME280;24660;43.238;26.576;2023-01-25T14:09:41;100656.84;;;1.65;100.00
38900;BME280;24660;43.238;26.576;2023-01-25T14:12:07;100651.75;;;1.59;100.00
38900;BME280;24660;43.238;26.576;2023-01-25T14:14:35;100655.00;;;1.69;100.00
38900;BME280;24660;43.238;26.576;2023-01-25T14:17:14;100642.03;;;1.61;100.00
38900;BME280;24660;43.238;26.576;2023-01-25T14:19:41;100646.22;;;1.70;100.00
38900;BME280;24660;43.238;26.576;2023-01-25T14:27:33;100637.25;;;1.41;100.00
38900;BME280;24660;43.238;26.576;2023-01-25T14:29:58;100642.16;;;1.19;100.00